Time;durP1;ratioP1;P1;durP2;ratioP2;P2;SDS_P1;SDS_P2;PMS_P1;PMS_P2;Temp;Humidity;BMP_temperature;BMP_pressure;BME280_temperature;BME280_humidity;BME280_pressure;Samples;Min_cycle;Max_cycle;Signal;HPM_P1;HPM_P2
2021/05/16 00:00:39;;;;;;;4.40;1.33;;;14.70;76.30;;;;;;4973378;28;95649;-71
2021/05/16 00:03:10;;;;;;;4.28;1.50;;;14.80;76.20;;;;;;4973831;28;95665;-73
2021/05/16 00:05:40;;;;;;;2.70;1.52;;;14.80;76.10;;;;;;4976796;28;96417;-72
2021/05/16 00:08:11;;;;;;;3.38;1.10;;;14.90;76.20;;;;;;4988758;28;95682;-73
2021/05/16 00:10:42;;;;;;;1.33;1.23;;;14.90;76.10;;;;;;4975199;28;95666;-74
2021/05/16 00:13:13;;;;;;;2.13;1.30;;;14.90;75.90;;;;;;4976273;28;95711;-72
2021/05/16 00:15:46;;;;;;;2.08;1.30;;;14.90;76.00;;;;;;4985154;28;96081;-67
2021/05/16 00:18:18;;;;;;;2.20;1.10;;;14.90;75.90;;;;;;4973518;28;95853;-67
2021/05/16 00:20:50;;;;;;;1.35;1.20;;;14.90;76.00;;;;;;4973878;28;95635;-72
2021/05/16 00:23:22;;;;;;;2.95;1.75;;;14.90;76.10;;;;;;4976474;28;95202;-67
2021/05/16 00:25:53;;;;;;;1.88;1.40;;;14.90;76.10;;;;;;4973464;28;96090;-67
2021/05/16 00:28:24;;;;;;;1.92;1.17;;;14.90;76.20;;;;;;4974711;28;95208;-71
2021/05/16 00:30:57;;;;;;;2.38;1.20;;;14.90;76.20;;;;;;4967090;28;95454;-68
2021/05/16 00:33:28;;;;;;;1.30;1.20;;;15.00;76.20;;;;;;4974727;28;95544;-72
2021/05/16 00:35:58;;;;;;;1.50;1.40;;;14.90;76.10;;;;;;5001047;28;95353;-71
2021/05/16 00:38:31;;;;;;;1.52;1.42;;;14.90;76.10;;;;;;4975431;28;95848;-68
2021/05/16 00:41:02;;;;;;;1.50;1.40;;;14.90;76.20;;;;;;4977378;28;95734;-73
2021/05/16 00:43:32;;;;;;;2.58;1.90;;;14.90;76.10;;;;;;4977152;28;96295;-72
2021/05/16 00:46:02;;;;;;;3.67;2.72;;;14.90;76.00;;;;;;4965412;28;95954;-68
2021/05/16 00:48:33;;;;;;;4.70;4.05;;;15.00;76.10;;;;;;4974054;28;95502;-71
2021/05/16 00:51:07;;;;;;;4.15;3.67;;;15.00;76.10;;;;;;5005037;28;95933;-71
2021/05/16 00:53:39;;;;;;;4.60;4.03;;;15.10;76.10;;;;;;4974356;28;95637;-72
2021/05/16 00:56:10;;;;;;;4.55;3.90;;;15.10;76.10;;;;;;4974137;28;96048;-71
2021/05/16 00:58:40;;;;;;;6.27;5.23;;;15.20;76.10;;;;;;4969419;28;97489;-67
2021/05/16 01:01:14;;;;;;;6.75;5.28;;;15.20;76.10;;;;;;4969292;28;95756;-67
2021/05/16 01:03:50;;;;;;;5.57;4.85;;;15.30;76.10;;;;;;4974722;28;97053;-68
2021/05/16 01:06:21;;;;;;;5.28;4.65;;;15.30;76.10;;;;;;4973466;28;98157;-73
2021/05/16 01:08:57;;;;;;;5.25;4.13;;;15.30;76.00;;;;;;4975047;28;95493;-73
2021/05/16 01:11:31;;;;;;;4.38;3.83;;;15.30;75.90;;;;;;5004606;28;95735;-72
2021/05/16 01:14:07;;;;;;;5.05;4.55;;;15.40;75.90;;;;;;4990327;28;95497;-72
2021/05/16 01:16:39;;;;;;;5.32;4.05;;;15.40;75.90;;;;;;4996511;28;97944;-67
2021/05/16 01:19:10;;;;;;;5.22;4.20;;;15.40;76.00;;;;;;4972323;28;98128;-71
2021/05/16 01:21:41;;;;;;;4.93;3.95;;;15.40;76.00;;;;;;4971612;28;95243;-66
2021/05/16 01:24:21;;;;;;;4.45;3.92;;;15.40;76.00;;;;;;4972005;28;95373;-71
2021/05/16 01:27:02;;;;;;;6.30;4.47;;;15.50;76.00;;;;;;4971223;28;96516;-72
2021/05/16 01:29:33;;;;;;;4.93;3.60;;;15.50;76.00;;;;;;4972978;28;95183;-66
2021/05/16 01:32:10;;;;;;;4.28;3.55;;;15.50;76.10;;;;;;4961958;28;95901;-66
2021/05/16 01:34:42;;;;;;;4.28;3.72;;;15.50;76.10;;;;;;4952990;28;95234;-65
2021/05/16 01:37:15;;;;;;;4.43;3.55;;;15.50;76.10;;;;;;4950816;28;96486;-66
2021/05/16 01:39:48;;;;;;;3.80;3.33;;;15.50;76.10;;;;;;4939717;28;95873;-71
2021/05/16 01:42:20;;;;;;;4.65;3.70;;;15.50;75.90;;;;;;4953128;28;95728;-68
2021/05/16 01:45:02;;;;;;;5.97;3.25;;;15.40;76.00;;;;;;4959211;28;95231;-70
2021/05/16 01:47:32;;;;;;;5.07;3.80;;;15.40;76.10;;;;;;4980043;28;96395;-71
2021/05/16 01:50:11;;;;;;;3.92;3.53;;;15.40;76.00;;;;;;4975652;28;95434;-71
2021/05/16 01:52:47;;;;;;;4.78;3.28;;;15.40;76.20;;;;;;4973006;28;96351;-66
2021/05/16 01:55:18;;;;;;;4.60;2.90;;;15.50;76.20;;;;;;4973130;28;96893;-73
2021/05/16 01:57:52;;;;;;;4.05;2.70;;;15.50;76.00;;;;;;4969490;28;96061;-71
2021/05/16 02:00:30;;;;;;;4.38;2.95;;;15.60;75.90;;;;;;4984863;28;95839;-67
2021/05/16 02:03:06;;;;;;;2.80;2.58;;;15.60;75.80;;;;;;4951839;28;100624;-64
2021/05/16 02:05:42;;;;;;;3.15;2.83;;;15.60;75.80;;;;;;4953756;28;95681;-63
2021/05/16 02:08:12;;;;;;;2.93;2.37;;;15.60;75.80;;;;;;4937821;28;96127;-64
2021/05/16 02:10:42;;;;;;;2.63;2.40;;;15.60;75.80;;;;;;4953218;28;95956;-64
2021/05/16 02:13:15;;;;;;;3.85;2.42;;;15.60;75.80;;;;;;4949351;28;95857;-70
2021/05/16 02:15:57;;;;;;;4.60;2.17;;;15.50;75.80;;;;;;4951213;28;95777;-69
2021/05/16 02:18:29;;;;;;;3.08;2.45;;;15.60;75.90;;;;;;4952134;28;96005;-65
2021/05/16 02:21:09;;;;;;;7.13;2.22;;;15.60;76.10;;;;;;4966013;28;97852;-65
2021/05/16 02:23:44;;;;;;;3.17;2.90;;;15.60;75.90;;;;;;4962731;28;95824;-71
2021/05/16 02:26:18;;;;;;;2.30;1.83;;;15.60;76.00;;;;;;4952902;28;95873;-64
2021/05/16 02:28:48;;;;;;;3.75;2.38;;;15.60;76.00;;;;;;4950250;28;96035;-70
2021/05/16 02:31:20;;;;;;;2.85;2.25;;;15.60;75.90;;;;;;4945866;28;95840;-65
2021/05/16 02:33:56;;;;;;;3.25;2.67;;;15.60;75.30;;;;;;4959606;28;97890;-64
2021/05/16 02:36:29;;;;;;;4.20;2.78;;;15.70;75.90;;;;;;4935425;28;96019;-64
2021/05/16 02:39:02;;;;;;;3.15;2.60;;;15.70;75.90;;;;;;4949632;28;96938;-64
2021/05/16 02:41:36;;;;;;;3.25;2.70;;;15.60;75.80;;;;;;4951790;28;95732;-69
2021/05/16 02:44:09;;;;;;;2.75;2.22;;;15.60;75.80;;;;;;4948895;28;95675;-64
2021/05/16 02:46:40;;;;;;;2.97;2.20;;;15.60;75.80;;;;;;4948574;28;96043;-70
2021/05/16 02:49:12;;;;;;;;;;;15.60;75.90;;;;;;4957032;28;97068;-70
2021/05/16 02:51:48;;;;;;;2.83;2.25;;;15.60;75.90;;;;;;4971396;28;97139;-71
2021/05/16 02:54:18;;;;;;;3.45;1.98;;;15.60;75.90;;;;;;4957102;28;95444;-71
2021/05/16 02:56:48;;;;;;;3.00;2.50;;;15.50;75.90;;;;;;4969637;28;95912;-71
2021/05/16 02:59:25;;;;;;;3.17;2.17;;;15.50;75.90;;;;;;4956418;28;96151;-73
2021/05/16 03:01:56;;;;;;;2.72;2.33;;;15.60;76.00;;;;;;4944109;28;97559;-72
2021/05/16 03:04:26;;;;;;;3.67;2.13;;;15.60;75.90;;;;;;4971356;28;95383;-71
2021/05/16 03:06:57;;;;;;;2.75;2.28;;;15.50;75.70;;;;;;4951826;28;96966;-70
2021/05/16 03:09:29;;;;;;;3.40;2.10;;;15.60;75.80;;;;;;4959060;28;97211;-65
2021/05/16 03:12:00;;;;;;;4.43;2.38;;;15.50;75.90;;;;;;4951173;28;97686;-70
2021/05/16 03:14:34;;;;;;;2.13;1.80;;;15.50;76.00;;;;;;4970961;28;95393;-71
2021/05/16 03:17:07;;;;;;;3.45;2.08;;;15.40;76.10;;;;;;4952198;28;95555;-71
2021/05/16 03:19:39;;;;;;;2.78;1.77;;;15.40;76.20;;;;;;4954593;28;96372;-70
2021/05/16 03:22:10;;;;;;;2.70;2.10;;;15.40;76.30;;;;;;4949877;28;95736;-70
2021/05/16 03:24:41;;;;;;;2.45;2.22;;;15.40;76.30;;;;;;4955644;28;95782;-70
2021/05/16 03:27:11;;;;;;;2.67;2.25;;;15.30;76.40;;;;;;4955606;28;95234;-69
2021/05/16 03:29:41;;;;;;;3.20;2.72;;;15.30;76.40;;;;;;4954920;28;96074;-70
2021/05/16 03:32:11;;;;;;;3.50;2.33;;;15.30;76.50;;;;;;4944294;28;97259;-65
2021/05/16 03:34:42;;;;;;;2.35;2.15;;;15.30;76.80;;;;;;4952611;28;95770;-70
2021/05/16 03:37:13;;;;;;;3.40;2.33;;;15.20;76.90;;;;;;4949435;28;95476;-70
2021/05/16 03:39:45;;;;;;;3.22;2.05;;;15.30;76.90;;;;;;4944709;28;98367;-70
2021/05/16 03:42:15;;;;;;;4.18;2.40;;;15.20;76.90;;;;;;4964587;28;95937;-70
2021/05/16 03:44:46;;;;;;;5.50;2.33;;;15.20;77.00;;;;;;4954561;28;95839;-71
2021/05/16 03:47:17;;;;;;;2.55;2.10;;;15.20;77.00;;;;;;4941753;28;95994;-69
2021/05/16 03:49:49;;;;;;;2.75;2.20;;;15.20;77.10;;;;;;4950799;28;96067;-65
2021/05/16 03:52:22;;;;;;;4.35;2.22;;;15.20;77.10;;;;;;4949678;28;95883;-64
2021/05/16 03:54:52;;;;;;;2.90;2.05;;;15.10;77.20;;;;;;4953091;28;95360;-65
2021/05/16 03:57:24;;;;;;;3.37;2.23;;;15.10;77.90;;;;;;4954536;28;95423;-70
2021/05/16 03:59:55;;;;;;;2.50;2.13;;;15.10;77.80;;;;;;4960122;28;95982;-71
2021/05/16 04:02:25;;;;;;;3.97;2.72;;;15.10;77.10;;;;;;4950109;28;95936;-70
2021/05/16 04:04:55;;;;;;;2.50;2.30;;;15.10;77.20;;;;;;4957057;28;95802;-70
2021/05/16 04:07:26;;;;;;;2.55;2.05;;;15.10;77.10;;;;;;4954851;28;95449;-67
2021/05/16 04:09:58;;;;;;;3.60;2.55;;;15.10;77.10;;;;;;4954697;28;96430;-72
2021/05/16 04:12:29;;;;;;;3.88;2.80;;;15.20;77.20;;;;;;4970739;28;95418;-72
2021/05/16 04:15:01;;;;;;;3.17;2.65;;;15.20;77.10;;;;;;4956714;28;95584;-66
2021/05/16 04:17:36;;;;;;;4.38;3.67;;;15.20;77.10;;;;;;4954473;28;95683;-72
2021/05/16 04:20:12;;;;;;;5.07;3.83;;;15.20;77.20;;;;;;4954622;28;96213;-65
2021/05/16 04:22:45;;;;;;;6.10;4.15;;;15.30;77.20;;;;;;4957352;28;95620;-72
2021/05/16 04:25:16;;;;;;;6.05;4.95;;;15.20;77.20;;;;;;4953552;28;95850;-73
2021/05/16 04:27:46;;;;;;;10.52;8.63;;;15.30;77.40;;;;;;4943379;28;95280;-71
2021/05/16 04:30:16;;;;;;;9.35;7.50;;;15.30;77.50;;;;;;4949375;28;96066;-75
2021/05/16 04:32:46;;;;;;;9.35;8.35;;;15.30;77.60;;;;;;4935502;28;97571;-72
2021/05/16 04:35:16;;;;;;;11.07;9.02;;;15.30;78.00;;;;;;4955186;28;95291;-67
2021/05/16 04:37:48;;;;;;;16.33;10.00;;;15.30;78.20;;;;;;4957605;28;95759;-66
2021/05/16 04:40:19;;;;;;;11.00;9.88;;;15.30;78.00;;;;;;4967164;28;98516;-65
2021/05/16 04:42:50;;;;;;;12.75;9.70;;;15.30;78.20;;;;;;4953427;28;95780;-66
2021/05/16 04:45:22;;;;;;;11.52;9.90;;;15.30;78.40;;;;;;4948437;28;95451;-71
2021/05/16 04:47:56;;;;;;;12.77;9.95;;;15.30;78.40;;;;;;4955239;28;95779;-73
2021/05/16 04:50:27;;;;;;;10.65;9.55;;;15.40;78.70;;;;;;4955767;28;96543;-71
2021/05/16 04:53:02;;;;;;;9.85;8.82;;;15.30;78.60;;;;;;4947992;28;95892;-65
2021/05/16 04:55:34;;;;;;;12.00;9.38;;;15.40;79.00;;;;;;4963952;28;97674;-72
2021/05/16 04:58:07;;;;;;;10.57;9.48;;;15.40;79.30;;;;;;4955075;28;98252;-66
2021/05/16 05:00:38;;;;;;;11.07;7.63;;;15.50;78.90;;;;;;4953672;28;99319;-66
2021/05/16 05:03:11;;;;;;;9.95;7.03;;;15.60;78.70;;;;;;4990387;28;96658;-64
2021/05/16 05:05:41;;;;;;;8.95;7.70;;;15.60;78.50;;;;;;4971052;28;95587;-66
2021/05/16 05:08:15;;;;;;;8.43;7.45;;;15.70;78.60;;;;;;4975377;28;95844;-65
2021/05/16 05:10:46;;;;;;;8.32;7.32;;;15.60;78.70;;;;;;4973434;28;95940;-71
2021/05/16 05:13:20;;;;;;;10.98;7.50;;;15.70;79.20;;;;;;4972367;28;95867;-65
2021/05/16 05:15:52;;;;;;;9.55;7.68;;;15.80;79.40;;;;;;4978355;28;95348;-65
2021/05/16 05:18:24;;;;;;;8.85;6.88;;;15.80;79.50;;;;;;4971755;28;95413;-70
2021/05/16 05:20:55;;;;;;;;;;;15.80;79.50;;;;;;4969081;28;96433;-70
2021/05/16 05:23:27;;;;;;;6.32;5.68;;;15.70;79.40;;;;;;5006314;28;98029;-71
2021/05/16 05:25:59;;;;;;;8.63;7.38;;;15.70;79.30;;;;;;4970471;28;95429;-65
2021/05/16 05:28:29;;;;;;;7.07;6.05;;;15.70;79.30;;;;;;4974372;28;95207;-73
2021/05/16 05:30:59;;;;;;;6.95;6.25;;;15.70;79.40;;;;;;4964468;28;95724;-70
2021/05/16 05:33:30;;;;;;;6.93;6.22;;;15.70;79.30;;;;;;4979480;28;95819;-71
2021/05/16 05:36:02;;;;;;;5.82;5.25;;;15.70;79.30;;;;;;4961630;28;96874;-73
2021/05/16 05:38:33;;;;;;;9.82;6.47;;;15.70;79.20;;;;;;4973918;28;95559;-71
2021/05/16 05:41:05;;;;;;;8.32;6.25;;;15.60;79.00;;;;;;4970237;28;96057;-72
2021/05/16 05:43:35;;;;;;;7.57;5.85;;;15.60;79.20;;;;;;4971289;28;95428;-71
2021/05/16 05:46:06;;;;;;;7.90;5.68;;;15.60;79.60;;;;;;4971333;28;95727;-72
2021/05/16 05:48:40;;;;;;;7.03;5.60;;;15.60;79.00;;;;;;4986117;28;95724;-70
2021/05/16 05:51:13;;;;;;;7.55;6.43;;;15.60;79.10;;;;;;4973349;28;96741;-71
2021/05/16 05:53:46;;;;;;;8.18;6.00;;;15.60;79.20;;;;;;4984184;28;97132;-71
2021/05/16 05:56:20;;;;;;;8.85;6.13;;;15.60;79.00;;;;;;4974035;28;95765;-67
2021/05/16 05:58:52;;;;;;;11.02;6.50;;;15.60;79.00;;;;;;4971310;28;95592;-73
2021/05/16 06:01:23;;;;;;;17.00;10.03;;;15.60;78.70;;;;;;4978356;28;97277;-75
2021/05/16 06:03:55;;;;;;;24.52;12.65;;;15.60;78.80;;;;;;4947128;28;96555;-74
2021/05/16 06:06:25;;;;;;;34.90;16.52;;;15.60;78.70;;;;;;4964055;28;95530;-74
2021/05/16 06:08:56;;;;;;;32.60;17.67;;;15.60;78.80;;;;;;4938115;28;96140;-74
2021/05/16 06:11:30;;;;;;;41.05;19.00;;;15.60;79.00;;;;;;4948727;28;96222;-72
2021/05/16 06:14:07;;;;;;;48.30;20.20;;;15.60;79.00;;;;;;4962571;28;104201;-72
2021/05/16 06:16:39;;;;;;;43.50;21.95;;;15.60;79.10;;;;;;4963365;28;95746;-72
2021/05/16 06:19:12;;;;;;;49.35;25.23;;;15.70;79.20;;;;;;4959542;28;95356;-73
2021/05/16 06:21:43;;;;;;;43.70;22.38;;;15.70;79.30;;;;;;4948739;28;96545;-74
2021/05/16 06:24:13;;;;;;;49.05;23.20;;;15.70;79.50;;;;;;4952245;28;96230;-72
2021/05/16 06:26:45;;;;;;;52.58;24.98;;;15.80;79.40;;;;;;4951986;28;95789;-71
2021/05/16 06:29:15;;;;;;;;;;;15.80;79.50;;;;;;4949804;28;95508;-73
2021/05/16 06:31:45;;;;;;;51.75;23.40;;;15.80;79.60;;;;;;4941650;28;97899;-74
2021/05/16 06:34:16;;;;;;;57.53;23.92;;;15.70;79.70;;;;;;4947842;28;95875;-72
2021/05/16 06:36:48;;;;;;;44.90;24.17;;;15.70;79.80;;;;;;4946713;28;95800;-65
2021/05/16 06:39:20;;;;;;;51.80;22.42;;;15.80;80.00;;;;;;4963010;28;95799;-73
2021/05/16 06:41:50;;;;;;;48.53;22.75;;;15.70;80.10;;;;;;4947746;28;95973;-66
2021/05/16 06:44:22;;;;;;;51.22;23.25;;;15.80;80.30;;;;;;4945920;28;95938;-74
2021/05/16 06:46:55;;;;;;;49.83;22.33;;;15.70;80.40;;;;;;4944175;28;96087;-65
2021/05/16 06:49:26;;;;;;;46.42;21.35;;;15.80;80.50;;;;;;4948517;28;96153;-72
2021/05/16 06:51:59;;;;;;;47.95;20.30;;;15.80;80.50;;;;;;4950200;28;96359;-71
2021/05/16 06:54:30;;;;;;;48.25;22.33;;;16.00;80.70;;;;;;4940760;28;96322;-71
2021/05/16 06:57:03;;;;;;;47.90;21.10;;;16.00;80.70;;;;;;4948695;28;95593;-72
2021/05/16 06:59:33;;;;;;;43.30;20.10;;;16.00;80.50;;;;;;4941749;28;96156;-71
2021/05/16 07:02:05;;;;;;;38.17;17.75;;;16.00;80.60;;;;;;4940522;28;97375;-70
2021/05/16 07:04:37;;;;;;;42.63;18.88;;;16.00;80.70;;;;;;4940248;28;95693;-74
2021/05/16 07:07:08;;;;;;;36.35;18.13;;;16.00;80.70;;;;;;4964276;28;96020;-64
2021/05/16 07:09:39;;;;;;;;;;;16.10;80.50;;;;;;4938834;28;97539;-70
2021/05/16 07:12:14;;;;;;;29.77;15.95;;;16.00;80.30;;;;;;4950222;28;96642;-71
2021/05/16 07:14:47;;;;;;;38.45;16.52;;;16.00;80.00;;;;;;4940994;28;95712;-70
2021/05/16 07:17:19;;;;;;;30.95;15.48;;;16.00;80.00;;;;;;4959457;28;95594;-70
2021/05/16 07:19:51;;;;;;;37.17;16.83;;;16.00;80.10;;;;;;4965884;28;96704;-71
2021/05/16 07:22:25;;;;;;;28.77;15.85;;;16.10;80.20;;;;;;4968363;28;96299;-70
2021/05/16 07:24:58;;;;;;;27.65;13.02;;;16.20;80.30;;;;;;4965728;28;95762;-71
2021/05/16 07:27:29;;;;;;;31.40;14.27;;;16.20;80.30;;;;;;4968150;28;96091;-71
2021/05/16 07:30:00;;;;;;;31.17;14.93;;;16.30;80.30;;;;;;4994101;28;95517;-70
2021/05/16 07:32:30;;;;;;;33.50;14.23;;;16.30;80.30;;;;;;4981993;28;96941;-70
2021/05/16 07:35:01;;;;;;;31.00;13.63;;;16.40;80.30;;;;;;4949634;28;95244;-66
2021/05/16 07:37:34;;;;;;;29.55;13.68;;;16.40;80.40;;;;;;4981959;28;96162;-64
2021/05/16 07:40:07;;;;;;;28.77;14.38;;;16.50;80.80;;;;;;4949784;28;95840;-70
2021/05/16 07:42:38;;;;;;;28.67;14.13;;;16.50;80.50;;;;;;4982836;28;97029;-70
2021/05/16 07:45:13;;;;;;;39.33;13.95;;;16.50;80.80;;;;;;4991013;28;96051;-69
2021/05/16 07:47:46;;;;;;;30.52;12.90;;;16.60;81.10;;;;;;4980939;28;95941;-71
2021/05/16 07:50:17;;;;;;;30.10;12.60;;;16.60;80.30;;;;;;4949029;28;95294;-71
2021/05/16 07:52:52;;;;;;;28.10;12.05;;;16.50;80.00;;;;;;4952081;28;96404;-69
2021/05/16 07:55:24;;;;;;;27.17;12.63;;;16.50;79.90;;;;;;4949099;28;96399;-69
2021/05/16 07:57:57;;;;;;;22.00;11.70;;;16.50;80.20;;;;;;4950626;28;95290;-69
2021/05/16 08:00:29;;;;;;;30.33;11.15;;;16.40;80.80;;;;;;4946343;28;95907;-71
2021/05/16 08:02:59;;;;;;;21.23;11.05;;;16.40;80.10;;;;;;4986627;28;105026;-69
2021/05/16 08:05:30;;;;;;;20.20;10.05;;;16.30;80.10;;;;;;4968654;28;95856;-71
2021/05/16 08:08:00;;;;;;;16.33;9.80;;;16.30;80.10;;;;;;4972778;28;95410;-69
2021/05/16 08:10:31;;;;;;;18.73;10.20;;;16.30;80.10;;;;;;4970871;28;96038;-70
2021/05/16 08:13:02;;;;;;;19.52;8.88;;;16.30;80.10;;;;;;4964069;28;95783;-65
2021/05/16 08:15:36;;;;;;;15.77;9.48;;;16.30;80.20;;;;;;4980373;28;96502;-71
2021/05/16 08:18:09;;;;;;;17.02;8.98;;;16.30;80.20;;;;;;4972934;28;96067;-73
2021/05/16 08:20:41;;;;;;;17.08;8.68;;;16.30;80.20;;;;;;4970529;28;95274;-75
2021/05/16 08:23:14;;;;;;;18.55;9.40;;;16.30;80.20;;;;;;4971371;28;96381;-69
2021/05/16 08:25:47;;;;;;;14.32;8.32;;;16.30;80.10;;;;;;4989028;28;96580;-75
2021/05/16 08:28:18;;;;;;;16.60;8.18;;;16.30;80.10;;;;;;4978324;28;95638;-68
2021/05/16 08:30:50;;;;;;;14.15;8.07;;;16.30;80.30;;;;;;4990159;28;97451;-75
2021/05/16 08:33:22;;;;;;;14.35;7.40;;;16.30;80.60;;;;;;4984270;28;96877;-74
2021/05/16 08:35:53;;;;;;;13.85;7.20;;;16.50;80.10;;;;;;5000278;28;95439;-74
2021/05/16 08:38:26;;;;;;;11.90;6.85;;;16.60;80.00;;;;;;4977558;28;95205;-76
2021/05/16 08:40:58;;;;;;;12.68;6.75;;;16.60;80.00;;;;;;4994804;28;95889;-75
2021/05/16 08:43:35;;;;;;;13.90;7.28;;;16.50;80.00;;;;;;4971127;28;96268;-74
2021/05/16 08:46:08;;;;;;;10.90;5.40;;;16.50;80.00;;;;;;4965546;28;97297;-73
2021/05/16 08:48:41;;;;;;;10.95;6.20;;;16.50;80.10;;;;;;4963225;28;95713;-74
2021/05/16 08:51:15;;;;;;;11.23;6.65;;;16.50;80.10;;;;;;4974062;28;95908;-75
2021/05/16 08:53:52;;;;;;;12.20;6.10;;;16.50;80.20;;;;;;4968430;28;96383;-73
2021/05/16 08:56:24;;;;;;;10.25;5.80;;;16.50;80.20;;;;;;4986968;28;96933;-71
2021/05/16 08:58:56;;;;;;;11.10;6.03;;;16.50;80.20;;;;;;4987190;28;96040;-72
2021/05/16 09:01:33;;;;;;;9.50;5.47;;;16.50;80.10;;;;;;4976105;28;95372;-77
2021/05/16 09:04:20;;;;;;;10.52;5.22;;;16.50;80.10;;;;;;4953227;28;96117;-77
2021/05/16 09:06:54;;;;;;;10.85;6.22;;;16.50;80.10;;;;;;4952215;28;96008;-74
2021/05/16 09:09:36;;;;;;;8.43;5.28;;;16.50;80.10;;;;;;4950654;28;96023;-76
2021/05/16 09:12:15;;;;;;;12.75;5.68;;;16.50;80.00;;;;;;4953080;28;95392;-77
2021/05/16 09:14:57;;;;;;;9.80;5.13;;;16.50;79.90;;;;;;4950610;28;96689;-78
2021/05/16 09:17:35;;;;;;;11.57;5.65;;;16.50;79.80;;;;;;4967083;28;99978;-74
2021/05/16 09:20:12;;;;;;;8.30;4.75;;;16.50;79.90;;;;;;4944074;28;98484;-76
2021/05/16 09:22:46;;;;;;;12.27;5.15;;;16.50;79.80;;;;;;4952340;28;95858;-70
2021/05/16 09:25:32;;;;;;;10.52;5.13;;;16.50;79.80;;;;;;4948718;28;99849;-76
2021/05/16 09:28:13;;;;;;;8.23;4.20;;;16.50;79.80;;;;;;4957245;28;96128;-68
2021/05/16 09:30:46;;;;;;;8.30;5.38;;;16.50;79.80;;;;;;4951115;28;95280;-69
2021/05/16 09:33:17;;;;;;;7.67;4.00;;;16.50;79.70;;;;;;4970954;28;95593;-76
2021/05/16 09:35:50;;;;;;;8.82;4.07;;;16.60;79.80;;;;;;4968263;28;99456;-76
2021/05/16 09:38:24;;;;;;;9.02;4.20;;;16.50;79.70;;;;;;4974179;28;95506;-76
2021/05/16 09:41:00;;;;;;;10.75;5.13;;;16.50;79.80;;;;;;4969650;28;96964;-76
2021/05/16 09:43:32;;;;;;;10.15;4.80;;;16.50;79.90;;;;;;4970909;28;95282;-69
2021/05/16 09:46:05;;;;;;;7.28;4.18;;;16.40;79.90;;;;;;4966392;28;95822;-76
2021/05/16 09:48:38;;;;;;;6.68;3.67;;;16.40;79.90;;;;;;4971788;28;95743;-75
2021/05/16 09:51:22;;;;;;;6.28;3.90;;;16.40;79.90;;;;;;4965989;28;95665;-74
2021/05/16 09:53:58;;;;;;;8.00;4.03;;;16.40;79.90;;;;;;4973133;28;96756;-76
2021/05/16 09:56:33;;;;;;;5.25;3.22;;;16.40;79.80;;;;;;4970427;28;96051;-69
2021/05/16 09:59:08;;;;;;;8.13;3.80;;;16.40;79.90;;;;;;4971770;28;95940;-76
2021/05/16 10:01:40;;;;;;;4.90;3.03;;;16.40;79.70;;;;;;4964106;28;98941;-69
2021/05/16 10:04:09;;;;;;;;;;;16.40;79.70;;;;;;4972238;28;95727;-76
2021/05/16 10:06:40;;;;;;;6.82;3.42;;;16.40;79.60;;;;;;4971262;28;99305;-75
2021/05/16 10:09:10;;;;;;;7.63;3.47;;;16.40;79.60;;;;;;4966347;28;97529;-69
2021/05/16 10:11:43;;;;;;;6.00;3.55;;;16.40;79.60;;;;;;4970022;28;95572;-75
2021/05/16 10:14:24;;;;;;;6.13;3.38;;;16.40;79.50;;;;;;4987479;28;96884;-76
2021/05/16 10:16:57;;;;;;;;;;;16.40;79.50;;;;;;4962694;28;97000;-76
2021/05/16 10:19:41;;;;;;;6.60;3.38;;;16.40;79.50;;;;;;4971729;28;95464;-76
2021/05/16 10:22:17;;;;;;;6.57;2.67;;;16.40;79.40;;;;;;4968638;28;96090;-76
2021/05/16 10:24:51;;;;;;;5.90;3.50;;;16.40;79.30;;;;;;4972591;28;95488;-76
2021/05/16 10:27:32;;;;;;;5.93;3.13;;;16.40;79.30;;;;;;4984312;28;98530;-77
2021/05/16 10:30:08;;;;;;;4.47;2.72;;;16.40;79.30;;;;;;5002819;28;95915;-68
2021/05/16 10:32:49;;;;;;;6.20;3.08;;;16.40;79.20;;;;;;4968671;28;95281;-76
2021/05/16 10:35:21;;;;;;;3.72;2.53;;;16.40;79.20;;;;;;4975296;28;95964;-76
2021/05/16 10:37:57;;;;;;;4.47;3.00;;;16.40;79.20;;;;;;4969785;28;95834;-77
2021/05/16 10:40:31;;;;;;;4.03;2.50;;;16.40;79.20;;;;;;4970538;28;95489;-69
2021/05/16 10:43:25;;;;;;;3.90;2.55;;;16.40;79.20;;;;;;4964747;28;96003;-75
2021/05/16 10:45:56;;;;;;;5.45;2.75;;;16.40;79.10;;;;;;4960413;28;95598;-76
2021/05/16 10:48:34;;;;;;;5.50;2.70;;;16.50;79.00;;;;;;4948466;28;95891;-76
2021/05/16 10:51:05;;;;;;;5.57;2.30;;;16.50;78.90;;;;;;4941167;28;96074;-75
2021/05/16 10:53:44;;;;;;;4.20;2.88;;;16.60;78.80;;;;;;4950362;28;96142;-75
2021/05/16 10:56:21;;;;;;;3.17;2.25;;;16.60;78.80;;;;;;4953653;28;95593;-69
2021/05/16 10:58:54;;;;;;;4.70;2.88;;;16.60;78.80;;;;;;4949843;28;96527;-75
2021/05/16 11:01:35;;;;;;;5.57;2.55;;;16.60;78.70;;;;;;4958887;28;95920;-76
2021/05/16 11:04:12;;;;;;;4.35;2.28;;;16.60;78.60;;;;;;4973210;28;95141;-76
2021/05/16 11:06:43;;;;;;;4.47;2.72;;;16.60;78.50;;;;;;4976581;28;96009;-77
2021/05/16 11:09:16;;;;;;;4.05;2.42;;;16.70;78.50;;;;;;4972665;28;96479;-76
2021/05/16 11:11:52;;;;;;;3.25;2.40;;;16.70;78.40;;;;;;4974104;28;95636;-70
2021/05/16 11:14:31;;;;;;;7.60;2.65;;;16.70;78.40;;;;;;4972767;28;95281;-70
2021/05/16 11:17:09;;;;;;;6.00;2.28;;;16.70;78.30;;;;;;4985222;28;95894;-77
2021/05/16 11:19:41;;;;;;;4.80;2.40;;;16.60;78.40;;;;;;4969410;28;97825;-77
2021/05/16 11:22:18;;;;;;;4.18;2.25;;;16.60;78.40;;;;;;4973221;28;96032;-77
2021/05/16 11:24:52;;;;;;;4.07;2.45;;;16.50;78.50;;;;;;4970327;28;95792;-77
2021/05/16 11:27:28;;;;;;;3.50;2.50;;;16.50;78.40;;;;;;4974611;28;95738;-70
2021/05/16 11:30:08;;;;;;;3.30;1.75;;;16.50;78.40;;;;;;4970672;28;96095;-77
2021/05/16 11:32:43;;;;;;;2.47;1.67;;;16.50;78.30;;;;;;4971322;28;96003;-69
2021/05/16 11:35:21;;;;;;;2.38;1.90;;;16.50;78.40;;;;;;4982284;28;97425;-77
2021/05/16 11:37:58;;;;;;;4.65;2.00;;;16.50;78.30;;;;;;4973016;28;95991;-69
2021/05/16 11:40:32;;;;;;;3.55;1.95;;;16.50;78.30;;;;;;4968103;28;96862;-77
2021/05/16 11:43:09;;;;;;;3.65;2.17;;;16.50;78.30;;;;;;4954124;28;95973;-77
2021/05/16 11:45:42;;;;;;;3.30;2.10;;;16.40;78.20;;;;;;4983094;28;97172;-72
2021/05/16 11:48:38;;;;;;;2.85;1.55;;;16.40;78.20;;;;;;4974285;28;95925;-77
2021/05/16 11:51:17;;;;;;;3.63;2.00;;;16.40;78.10;;;;;;4974109;28;96086;-77
2021/05/16 11:53:59;;;;;;;3.55;1.83;;;16.40;78.10;;;;;;4964424;28;96437;-78
2021/05/16 11:56:38;;;;;;;1.98;1.33;;;16.40;78.10;;;;;;4969943;28;95712;-77
2021/05/16 11:59:13;;;;;;;2.03;1.70;;;16.40;78.10;;;;;;4984370;28;95795;-77
2021/05/16 12:01:47;;;;;;;2.83;1.42;;;16.40;78.00;;;;;;4969167;28;97249;-77
2021/05/16 12:04:20;;;;;;;2.63;1.90;;;16.50;78.00;;;;;;4970982;28;98889;-73
2021/05/16 12:06:57;;;;;;;2.70;1.83;;;16.50;78.00;;;;;;4973911;28;95663;-76
2021/05/16 12:09:36;;;;;;;2.63;1.60;;;16.40;77.90;;;;;;4988868;28;95285;-69
2021/05/16 12:12:25;;;;;;;3.67;1.90;;;16.40;77.90;;;;;;4974567;28;95925;-71
2021/05/16 12:14:57;;;;;;;2.20;1.70;;;16.40;77.80;;;;;;4989481;28;95947;-70
2021/05/16 12:17:37;;;;;;;3.53;1.85;;;16.40;77.80;;;;;;4977912;28;95375;-76
2021/05/16 12:20:09;;;;;;;2.95;1.90;;;16.40;77.90;;;;;;4976039;28;95808;-76
2021/05/16 12:22:41;;;;;;;5.55;1.67;;;16.40;77.90;;;;;;4970315;28;96829;-69
2021/05/16 12:25:13;;;;;;;3.08;1.70;;;16.40;77.90;;;;;;4969503;28;95994;-76
2021/05/16 12:27:43;;;;;;;3.88;2.10;;;16.40;77.80;;;;;;4988269;28;96236;-76
2021/05/16 12:30:15;;;;;;;3.67;1.80;;;16.40;77.90;;;;;;4966612;28;95659;-75
2021/05/16 12:32:51;;;;;;;7.00;2.08;;;16.30;77.70;;;;;;4982157;28;104539;-76
2021/05/16 12:35:22;;;;;;;5.43;2.13;;;16.40;77.80;;;;;;4963781;28;98098;-76
2021/05/16 12:37:54;;;;;;;;;;;16.30;77.70;;;;;;4981881;28;95577;-76
2021/05/16 12:40:25;;;;;;;3.17;1.98;;;16.30;77.60;;;;;;4984742;28;95846;-76
2021/05/16 12:43:09;;;;;;;3.55;1.73;;;16.30;77.70;;;;;;4953607;28;98224;-76
2021/05/16 12:45:41;;;;;;;3.30;2.13;;;16.30;77.70;;;;;;4928916;28;96014;-69
2021/05/16 12:48:22;;;;;;;2.90;1.70;;;16.30;77.60;;;;;;4946279;28;95295;-69
2021/05/16 12:50:58;;;;;;;4.10;2.13;;;16.30;77.60;;;;;;4950469;28;95919;-77
2021/05/16 12:53:36;;;;;;;3.40;2.15;;;16.30;77.60;;;;;;4947848;28;97093;-70
2021/05/16 12:56:16;;;;;;;4.82;2.20;;;16.30;77.60;;;;;;4963838;28;96372;-75
2021/05/16 12:59:07;;;;;;;4.45;2.15;;;16.20;77.60;;;;;;4965766;28;95940;-75
2021/05/16 13:01:39;;;;;;;4.00;1.70;;;16.20;77.60;;;;;;4943464;28;95992;-75
2021/05/16 13:04:17;;;;;;;3.08;1.98;;;16.20;77.70;;;;;;4964096;28;97950;-69
2021/05/16 13:06:55;;;;;;;2.55;1.80;;;16.20;77.70;;;;;;4947238;28;96123;-76
2021/05/16 13:09:32;;;;;;;2.78;2.00;;;16.20;77.60;;;;;;4951208;28;95681;-75
2021/05/16 13:12:05;;;;;;;4.00;2.33;;;16.20;77.60;;;;;;4947659;28;96178;-69
2021/05/16 13:14:39;;;;;;;4.05;2.42;;;16.20;77.60;;;;;;4950761;28;96041;-73